Terminal Aerodrome Forecast
Issued by NWS Spokane, WA

Home | Current Version | Previous Version | Text Only | Print | Product List | Glossary On
Versions: 1 2 3 4 5 6 7 8 9 10 11 12 13 14 15 16 17 18
000
FTUS46 KOTX 061135
TAFGEG
TAF
KGEG 061135Z 0612/0712 02005KT P6SM SCT070 BKN200
     FM061800 05017KT P6SM SCT080
     FM070200 03009KT P6SM SKC=

USA.gov is the U.S. government's official web portal to all federal, state and local government web resources and services.